Time;durP1;ratioP1;P1;durP2;ratioP2;P2;SDS_P1;SDS_P2;PMS_P1;PMS_P2;Temp;Humidity;BMP_temperature;BMP_pressure;BME280_temperature;BME280_humidity;BME280_pressure;Samples;Min_cycle;Max_cycle;Signal;HPM_P1;HPM_P2
2023/05/08 00:00:03;;;;;;;1.60;0.25;;;;;;;20.65;49.04;101939.88;16115233;19;129883;-39
2023/05/08 00:05:25;;;;;;;0.20;0.20;;;;;;;20.65;48.58;101933.50;16117843;19;130895;-39
2023/05/08 00:10:47;;;;;;;0.93;0.20;;;;;;;20.63;48.71;101938.44;16117266;19;129061;-39
2023/05/08 00:16:10;;;;;;;0.77;0.30;;;;;;;20.62;48.87;101945.06;16113023;19;129954;-39
2023/05/08 00:21:32;;;;;;;0.40;0.15;;;;;;;20.62;48.59;101945.06;16118584;19;130047;-40
2023/05/08 00:26:54;;;;;;;0.45;0.20;;;;;;;20.59;48.90;101947.22;16116379;19;129266;-39
2023/05/08 00:32:16;;;;;;;0.25;0.10;;;;;;;20.58;49.00;101942.75;16113898;19;131746;-39
2023/05/08 00:37:40;;;;;;;1.02;0.20;;;;;;;20.56;48.75;101930.19;16116387;19;129628;-39
2023/05/08 00:43:01;;;;;;;0.10;0.10;;;;;;;20.56;48.92;101930.19;16111453;19;130996;-39
2023/05/08 00:48:24;;;;;;;0.75;0.17;;;;;;;20.54;48.99;101947.09;16112911;19;129586;-39
2023/05/08 00:53:46;;;;;;;0.47;0.20;;;;;;;20.54;48.84;101947.09;16115001;19;133777;-39
2023/05/08 00:59:10;;;;;;;0.10;0.10;;;;;;;20.53;48.59;101952.88;16112749;19;133056;-39
2023/05/08 01:04:33;;;;;;;0.10;0.10;;;;;;;20.52;48.77;101957.59;16114689;19;130972;-39
2023/05/08 01:09:55;;;;;;;0.65;0.20;;;;;;;20.51;48.69;101944.78;16111647;19;131748;-39
2023/05/08 01:15:30;;;;;;;0.17;0.17;;;;;;;20.52;48.77;101952.03;16117013;19;131039;-39
2023/05/08 01:20:58;;;;;;;0.10;0.10;;;;;;;20.50;48.56;101958.91;16114821;19;129778;-39
2023/05/08 01:26:44;;;;;;;0.10;0.10;;;;;;;20.49;48.56;101935.84;16108122;19;129930;-39
2023/05/08 01:32:28;;;;;;;0.47;0.17;;;;;;;20.47;48.68;101943.56;16104046;19;135565;-40
2023/05/08 01:38:05;;;;;;;0.15;0.10;;;;;;;20.45;48.53;101952.13;16107529;19;130559;-39
2023/05/08 01:43:39;;;;;;;0.30;0.30;;;;;;;20.45;48.68;101954.06;16102935;19;130465;-39
2023/05/08 01:49:08;;;;;;;0.38;0.20;;;;;;;20.44;48.72;101956.00;16113299;19;130193;-39
2023/05/08 01:54:37;;;;;;;0.05;0.05;;;;;;;20.44;48.50;101955.13;16110926;19;131198;-38
2023/05/08 02:00:02;;;;;;;0.40;0.20;;;;;;;20.43;48.69;101956.25;16111154;19;129274;-39
2023/05/08 02:05:27;;;;;;;0.20;0.20;;;;;;;20.41;48.85;101962.00;16103355;19;131446;-39
2023/05/08 02:10:50;;;;;;;0.28;0.25;;;;;;;20.42;48.39;101962.88;16109171;19;130654;-39
2023/05/08 02:16:13;;;;;;;0.70;0.50;;;;;;;20.41;48.36;101962.00;16104620;19;129739;-39
2023/05/08 02:21:37;;;;;;;0.55;0.50;;;;;;;20.41;48.54;101961.19;16106395;19;129983;-42
2023/05/08 02:27:00;;;;;;;2.90;0.57;;;;;;;20.40;48.62;101959.47;16101872;19;129492;-39
2023/05/08 02:32:25;;;;;;;0.80;0.80;;;;;;;20.40;48.82;101970.59;16106269;19;130339;-39
2023/05/08 02:37:54;;;;;;;0.60;0.60;;;;;;;20.40;48.52;101965.03;16124161;19;129904;-41
2023/05/08 02:43:16;;;;;;;1.02;0.93;;;;;;;20.38;48.44;101967.19;16124309;19;129599;-39
2023/05/08 02:49:52;;;;;;;1.38;1.00;;;;;;;20.35;48.78;101964.88;16124055;19;130048;-39
2023/05/08 02:55:19;;;;;;;1.10;1.00;;;;;;;20.35;48.33;101968.53;16111474;19;131166;-39
2023/05/08 03:00:49;;;;;;;1.42;0.80;;;;;;;20.35;48.57;101967.66;16108960;19;130184;-39
2023/05/08 03:06:15;;;;;;;0.88;0.70;;;;;;;20.34;48.27;101963.16;16109897;19;130441;-38
2023/05/08 03:11:43;;;;;;;0.80;0.73;;;;;;;20.34;48.20;101963.16;16114677;19;129740;-38
2023/05/08 03:17:07;;;;;;;0.98;0.90;;;;;;;20.32;48.66;101957.00;16113327;19;130866;-38
2023/05/08 03:22:33;;;;;;;1.52;1.35;;;;;;;20.33;48.37;101969.81;16111176;19;130603;-39
2023/05/08 03:27:56;;;;;;;;;;;;;;;20.29;48.37;101963.88;16116452;19;130821;-39
2023/05/08 03:33:20;;;;;;;3.10;2.75;;;;;;;20.30;48.33;101960.00;16119924;19;130781;-39
2023/05/08 03:38:42;;;;;;;3.50;3.10;;;;;;;20.29;48.11;101961.09;16120794;19;130300;-39
2023/05/08 03:44:06;;;;;;;2.30;1.63;;;;;;;20.28;48.10;101965.81;16117829;19;130633;-41
2023/05/08 03:49:29;;;;;;;2.13;1.83;;;;;;;20.28;48.74;101968.59;16121702;19;130602;-39
2023/05/08 03:54:51;;;;;;;1.55;1.15;;;;;;;20.26;48.50;101958.78;16124382;19;131268;-39
2023/05/08 04:00:44;;;;;;;2.63;0.90;;;;;;;20.29;48.27;101952.75;16123214;19;129327;-49
2023/05/08 04:06:13;;;;;;;1.48;1.02;;;;;;;20.28;48.33;101946.38;16119122;19;134640;-49
2023/05/08 04:11:52;;;;;;;1.08;0.98;;;;;;;20.27;48.48;101938.25;16122863;19;129511;-39
2023/05/08 04:17:21;;;;;;;2.00;1.38;;;;;;;20.25;48.22;101949.59;16120752;19;130278;-39
2023/05/08 04:22:45;;;;;;;1.35;0.88;;;;;;;20.24;48.03;101947.91;16116505;19;130683;-48
2023/05/08 04:28:07;;;;;;;0.80;0.80;;;;;;;20.24;48.24;101956.25;16123567;19;129795;-48
2023/05/08 04:33:30;;;;;;;0.82;0.70;;;;;;;20.24;48.17;101967.34;16121647;19;131585;-39
2023/05/08 04:38:51;;;;;;;2.45;1.48;;;;;;;20.24;47.87;101963.75;16114462;19;129571;-39
2023/05/08 04:44:13;;;;;;;1.27;0.85;;;;;;;20.22;48.21;101968.69;16114732;19;130687;-39
2023/05/08 04:49:35;;;;;;;3.50;1.50;;;;;;;20.22;48.09;101969.50;16119716;19;129750;-39
2023/05/08 04:54:57;;;;;;;1.50;1.35;;;;;;;20.20;48.04;101971.66;16114632;19;130475;-39
2023/05/08 05:00:19;;;;;;;1.58;1.40;;;;;;;20.20;48.36;101991.13;16113491;19;129997;-40
2023/05/08 05:05:41;;;;;;;1.35;1.25;;;;;;;20.19;48.13;101997.75;16111221;19;131272;-39
2023/05/08 05:11:03;;;;;;;2.70;2.08;;;;;;;20.20;48.11;102001.41;16115077;19;129736;-40
2023/05/08 05:16:26;;;;;;;5.95;2.83;;;;;;;20.21;47.99;102000.31;16116787;19;129639;-41
2023/05/08 05:21:48;;;;;;;6.70;3.13;;;;;;;20.20;47.78;102004.16;16114436;19;131416;-40
2023/05/08 05:27:10;;;;;;;7.50;3.47;;;;;;;20.20;48.01;102024.47;16111480;19;130698;-41
2023/05/08 05:32:31;;;;;;;18.80;5.53;;;;;;;20.16;48.32;102026.03;16115597;19;131572;-45
2023/05/08 05:37:53;;;;;;;29.83;20.40;;;;;;;20.15;48.00;102029.88;16113477;19;129327;-42
2023/05/08 05:43:15;;;;;;;46.17;28.55;;;;;;;20.17;47.92;102036.06;16110581;19;129464;-41
2023/05/08 05:48:37;;;;;;;48.33;32.63;;;;;;;20.16;47.96;102048.25;16112434;19;129951;-40
2023/05/08 05:53:59;;;;;;;43.45;28.55;;;;;;;20.17;47.74;102043.53;16108473;19;131127;-42
2023/05/08 05:59:21;;;;;;;41.75;30.48;;;;;;;20.16;48.14;102058.50;16104466;19;135529;-40
2023/05/08 06:04:43;;;;;;;35.00;25.02;;;;;;;20.16;47.89;102053.81;16115102;19;131308;-41
2023/05/08 06:10:05;;;;;;;32.60;22.48;;;;;;;20.17;47.90;102065.75;16115848;19;130402;-40
2023/05/08 06:15:27;;;;;;;30.40;20.67;;;;;;;20.17;47.66;102065.75;16126509;19;130857;-42
2023/05/08 06:20:57;;;;;;;28.65;18.65;;;;;;;20.17;48.10;102065.75;16125181;19;130083;-40
2023/05/08 06:26:20;;;;;;;23.73;17.27;;;;;;;20.16;47.63;102064.06;16126873;19;129376;-39
2023/05/08 06:31:44;;;;;;;24.07;15.33;;;;;;;20.16;47.83;102059.34;16130321;19;130327;-39
2023/05/08 06:37:05;;;;;;;26.67;14.45;;;;;;;20.17;47.68;102074.94;16129298;19;129289;-39
2023/05/08 06:42:27;;;;;;;18.83;13.30;;;;;;;20.17;47.65;102068.53;16128103;19;131527;-40
2023/05/08 06:47:49;;;;;;;15.52;11.10;;;;;;;20.17;48.03;102072.19;16126339;19;129560;-39
2023/05/08 06:53:11;;;;;;;14.77;9.77;;;;;;;20.16;47.75;102073.25;16122081;19;130217;-40
2023/05/08 06:58:34;;;;;;;12.93;9.45;;;;;;;20.16;47.81;102069.59;16125773;19;129706;-40
2023/05/08 07:03:56;;;;;;;11.27;8.38;;;;;;;20.16;47.73;102076.03;16124924;19;131549;-38
2023/05/08 07:09:18;;;;;;;10.15;7.53;;;;;;;20.17;47.70;102074.94;16125553;19;130039;-39
2023/05/08 07:14:40;;;;;;;10.65;7.20;;;;;;;20.18;47.51;102086.91;16126548;19;130240;-39
2023/05/08 07:20:02;;;;;;;7.82;5.72;;;;;;;20.17;47.47;102077.72;16127775;19;129577;-39
2023/05/08 07:25:24;;;;;;;8.95;6.28;;;;;;;20.18;47.81;102073.00;16122313;19;129753;-41
2023/05/08 07:30:46;;;;;;;9.57;5.70;;;;;;;20.19;47.59;102075.53;16121553;19;129867;-39
2023/05/08 07:36:08;;;;;;;8.93;5.10;;;;;;;20.23;47.64;102073.19;16120750;19;131145;-41
2023/05/08 07:41:31;;;;;;;7.85;5.32;;;;;;;20.27;47.63;102072.50;16125774;19;129228;-40
2023/05/08 07:46:53;;;;;;;6.55;4.50;;;;;;;20.32;47.65;102068.16;16120028;19;129703;-39
2023/05/08 07:52:15;;;;;;;8.23;3.78;;;;;;;20.36;47.58;102072.19;16118727;19;130008;-40
2023/05/08 07:57:39;;;;;;;4.40;2.63;;;;;;;20.42;47.44;102065.72;16120621;19;131805;-39
2023/05/08 08:03:02;;;;;;;6.20;3.00;;;;;;;20.50;47.62;102070.09;16117540;19;131528;-39
2023/05/08 08:08:24;;;;;;;4.75;2.70;;;;;;;20.59;47.53;102069.56;16122332;19;129504;-39
2023/05/08 08:13:46;;;;;;;4.72;2.80;;;;;;;20.71;46.85;102077.13;16124073;19;136339;-39
2023/05/08 08:19:09;;;;;;;6.03;2.67;;;;;;;20.80;46.97;102067.41;16114563;19;130068;-39
2023/05/08 08:24:31;;;;;;;18.35;5.55;;;;;;;20.87;46.95;102076.53;16116642;19;129526;-41
2023/05/08 08:29:53;;;;;;;15.07;6.32;;;;;;;20.94;46.85;102076.44;16121808;19;130325;-39
2023/05/08 08:35:35;;;;;;;11.82;4.90;;;;;;;21.04;46.97;102075.91;16123130;19;129258;-40
2023/05/08 08:40:57;;;;;;;8.73;4.28;;;;;;;21.11;46.80;102073.88;16121789;19;131807;-41
2023/05/08 08:46:24;;;;;;;10.88;4.03;;;;;;;21.13;47.20;102074.47;16121887;19;130181;-39
2023/05/08 08:51:51;;;;;;;7.07;3.08;;;;;;;21.14;47.32;102080.88;16120269;19;129448;-39
2023/05/08 08:57:14;;;;;;;8.00;3.35;;;;;;;21.13;46.98;102068.91;16118533;19;129707;-38
2023/05/08 09:02:36;;;;;;;8.05;2.92;;;;;;;21.18;47.33;102077.38;16121895;19;131249;-39
2023/05/08 09:07:58;;;;;;;4.53;2.55;;;;;;;21.18;47.10;102068.22;16119925;19;129345;-38
2023/05/08 09:13:21;;;;;;;4.18;1.95;;;;;;;21.20;46.96;102072.44;16118959;19;131130;-39
2023/05/08 09:18:43;;;;;;;5.15;2.42;;;;;;;21.22;47.11;102073.06;16120548;19;128850;-41
2023/05/08 09:24:05;;;;;;;6.55;2.22;;;;;;;21.27;47.05;102075.13;16115953;19;129348;-39
2023/05/08 09:29:27;;;;;;;4.53;2.40;;;;;;;21.31;47.20;102078.28;16115132;19;129400;-39
2023/05/08 09:34:52;;;;;;;7.70;2.60;;;;;;;21.38;46.89;102067.91;16109857;19;130232;-39
2023/05/08 09:40:17;;;;;;;6.25;2.33;;;;;;;21.40;46.91;102076.88;16109145;19;129430;-39
2023/05/08 09:45:40;;;;;;;4.20;2.20;;;;;;;21.43;46.89;102076.38;16110259;19;130507;-39
2023/05/08 09:51:05;;;;;;;4.90;2.30;;;;;;;21.48;46.72;102070.97;16115343;19;130535;-39
2023/05/08 09:56:38;;;;;;;5.80;2.80;;;;;;;21.50;46.60;102077.19;16106937;19;130603;-39
2023/05/08 10:02:09;;;;;;;9.82;2.97;;;;;;;21.51;46.58;102064.97;16111345;19;130076;-42
2023/05/08 10:07:37;;;;;;;5.13;2.90;;;;;;;21.52;46.94;102066.66;16116055;19;129279;-39
2023/05/08 10:12:59;;;;;;;6.95;3.00;;;;;;;21.55;46.91;102070.03;16113249;19;131461;-40
2023/05/08 10:18:27;;;;;;;4.60;2.53;;;;;;;21.52;46.94;102080.59;16115527;19;130991;-40
2023/05/08 10:23:51;;;;;;;4.88;2.90;;;;;;;21.48;46.81;102079.31;16111498;19;130685;-42
2023/05/08 10:29:19;;;;;;;7.50;4.15;;;;;;;21.46;46.84;102075.91;16110068;19;130811;-39
2023/05/08 10:34:45;;;;;;;9.35;5.45;;;;;;;21.43;46.64;102072.75;16110242;19;129089;-42
2023/05/08 10:40:08;;;;;;;9.30;5.40;;;;;;;21.36;46.96;102068.13;16109963;19;129408;-40
2023/05/08 10:45:31;;;;;;;10.15;5.68;;;;;;;21.33;47.07;102067.75;16113258;19;131865;-39
2023/05/08 10:51:26;;;;;;;9.30;5.70;;;;;;;21.30;46.87;102057.97;16110027;19;130908;-40
2023/05/08 10:56:48;;;;;;;10.35;5.10;;;;;;;21.22;47.14;102056.34;16113822;19;130330;-39
2023/05/08 11:02:10;;;;;;;11.77;5.40;;;;;;;21.21;46.98;102064.97;16122130;19;130110;-40
2023/05/08 11:07:58;;;;;;;8.80;6.13;;;;;;;21.19;47.03;102056.00;16123218;19;129595;-41
2023/05/08 11:13:27;;;;;;;8.05;5.47;;;;;;;21.17;46.90;102045.06;16127874;19;131979;-39
2023/05/08 11:19:18;;;;;;;8.70;5.60;;;;;;;21.15;46.58;102044.50;16121343;19;129241;-41
2023/05/08 11:25:03;;;;;;;10.30;5.63;;;;;;;21.14;46.77;102045.56;16123514;19;129399;-43
2023/05/08 11:30:31;;;;;;;10.75;5.18;;;;;;;21.12;47.01;102044.97;16119381;19;130003;-40
2023/05/08 11:36:18;;;;;;;11.95;5.70;;;;;;;21.10;47.06;102041.56;16123466;19;130231;-40
2023/05/08 11:41:40;;;;;;;8.85;5.55;;;;;;;21.08;46.99;102046.50;16121013;19;129412;-42
2023/05/08 11:47:02;;;;;;;10.20;4.95;;;;;;;21.09;46.71;102027.88;16122137;19;129694;-40
2023/05/08 11:52:24;;;;;;;11.88;5.53;;;;;;;21.10;47.10;102024.84;16125066;19;129687;-39
2023/05/08 11:57:46;;;;;;;7.38;5.15;;;;;;;21.10;46.69;102024.84;16122688;19;132882;-40
2023/05/08 12:03:12;;;;;;;8.07;4.80;;;;;;;21.11;46.72;102018.22;16123141;19;129506;-40
2023/05/08 12:08:37;;;;;;;9.02;5.53;;;;;;;21.11;47.07;102009.88;16122764;19;130740;-40
2023/05/08 12:13:59;;;;;;;10.18;5.28;;;;;;;21.11;46.65;102009.88;16124287;19;131000;-39
2023/05/08 12:19:21;;;;;;;8.27;5.22;;;;;;;21.11;47.14;102009.03;16121908;19;129854;-39
2023/05/08 12:24:43;;;;;;;7.68;4.93;;;;;;;21.12;46.87;102005.13;16121739;19;129440;-43
2023/05/08 12:30:08;;;;;;;10.77;5.13;;;;;;;21.11;46.91;101995.94;16123932;19;129781;-39
2023/05/08 12:35:31;;;;;;;8.40;5.77;;;;;;;21.13;47.11;101990.13;16121892;19;130520;-39
2023/05/08 12:40:57;;;;;;;10.98;5.30;;;;;;;21.13;47.06;101990.13;16119217;19;131548;-40
2023/05/08 12:46:21;;;;;;;;;;;;;;;21.10;46.77;101985.91;16120262;19;129183;-39
2023/05/08 12:51:45;;;;;;;7.43;4.72;;;;;;;21.11;46.66;101982.03;16120459;19;129628;-40
2023/05/08 12:57:11;;;;;;;9.52;5.20;;;;;;;21.10;46.69;101980.34;16120416;19;129568;-39
2023/05/08 13:02:34;;;;;;;7.20;5.15;;;;;;;21.09;46.73;101973.06;16119542;19;129062;-43
2023/05/08 13:08:10;;;;;;;7.93;5.47;;;;;;;21.09;46.63;101978.63;16116777;19;129599;-40
2023/05/08 13:13:35;;;;;;;6.05;3.90;;;;;;;21.10;46.90;101980.34;16120183;19;129283;-49
2023/05/08 13:18:56;;;;;;;7.82;4.90;;;;;;;21.09;46.51;101975.84;16115492;19;129710;-50
2023/05/08 13:24:18;;;;;;;5.60;4.15;;;;;;;21.10;46.36;101963.66;16119183;19;129797;-50
2023/05/08 13:29:40;;;;;;;6.70;4.70;;;;;;;21.11;46.56;101961.72;16119134;19;129499;-49
2023/05/08 13:35:03;;;;;;;7.80;4.85;;;;;;;21.12;46.37;101955.91;16118075;19;130356;-48
2023/05/08 13:40:25;;;;;;;6.22;4.18;;;;;;;21.10;46.79;101958.09;16114059;19;130473;-47
2023/05/08 13:45:50;;;;;;;7.30;4.63;;;;;;;21.11;46.53;101958.94;16109978;19;131261;-48
2023/05/08 13:51:12;;;;;;;6.35;4.32;;;;;;;21.09;46.31;101956.38;16110295;19;129933;-45
2023/05/08 13:56:34;;;;;;;5.20;3.83;;;;;;;21.09;46.50;101945.25;16110572;19;129674;-50
2023/05/08 14:01:56;;;;;;;7.28;4.10;;;;;;;21.08;46.33;101943.56;16112319;19;130006;-50
2023/05/08 14:07:18;;;;;;;4.90;3.50;;;;;;;21.09;46.21;101931.34;16111340;19;131377;-45
2023/05/08 14:12:40;;;;;;;4.20;3.50;;;;;;;21.09;46.54;101922.16;16114754;19;130692;-49
2023/05/08 14:18:01;;;;;;;5.00;3.50;;;;;;;21.09;46.36;101928.56;16113010;19;129346;-48
2023/05/08 14:23:23;;;;;;;4.72;3.28;;;;;;;21.09;46.18;101934.13;16114464;19;129652;-45
2023/05/08 14:28:45;;;;;;;5.43;3.75;;;;;;;21.08;46.19;101926.88;16113626;19;129602;-52
2023/05/08 14:34:07;;;;;;;6.32;3.55;;;;;;;21.09;46.23;101930.50;16121566;19;131715;-52
2023/05/08 14:39:29;;;;;;;5.50;3.22;;;;;;;21.09;46.31;101938.84;16127090;19;131060;-40
2023/05/08 14:44:51;;;;;;;5.07;3.63;;;;;;;21.09;46.63;101931.34;16128177;19;130303;-40
2023/05/08 14:50:12;;;;;;;5.40;3.85;;;;;;;21.09;46.32;101941.63;16127797;19;129841;-39
2023/05/08 14:55:34;;;;;;;5.18;3.67;;;;;;;21.09;46.08;101933.28;16129824;19;129482;-41
2023/05/08 15:00:57;;;;;;;5.82;3.97;;;;;;;21.09;46.19;101934.13;16128889;19;129755;-41
2023/05/08 15:06:20;;;;;;;5.35;3.65;;;;;;;21.10;46.29;101929.44;16129211;19;129495;-39
2023/05/08 15:11:43;;;;;;;4.10;3.17;;;;;;;21.10;46.17;101927.47;16128291;19;131099;-40
2023/05/08 15:17:05;;;;;;;5.15;3.78;;;;;;;21.11;46.11;101931.97;16128013;19;130240;-40
2023/05/08 15:22:26;;;;;;;5.28;3.47;;;;;;;21.10;46.37;101924.69;16125119;19;131426;-40
2023/05/08 15:27:51;;;;;;;7.88;4.18;;;;;;;21.09;46.13;101927.72;16123936;19;131461;-40
2023/05/08 15:33:13;;;;;;;9.30;3.87;;;;;;;21.10;46.22;101930.25;16121464;19;130431;-44
2023/05/08 15:38:35;;;;;;;10.27;4.15;;;;;;;21.09;45.87;101922.16;16118740;19;131235;-40
2023/05/08 15:43:57;;;;;;;9.10;4.38;;;;;;;21.08;45.94;101932.44;16120851;19;129824;-40
2023/05/08 15:49:24;;;;;;;6.72;3.88;;;;;;;21.08;45.88;101926.88;16119287;19;131822;-40
2023/05/08 15:54:46;;;;;;;12.05;4.07;;;;;;;21.08;45.82;101932.44;16124829;19;134958;-40
2023/05/08 16:00:09;;;;;;;7.68;3.90;;;;;;;21.08;46.17;101935.22;16122362;19;130141;-40
2023/05/08 16:05:31;;;;;;;6.28;3.50;;;;;;;21.09;46.31;101931.34;16115140;19;131608;-41
2023/05/08 16:10:53;;;;;;;6.95;3.38;;;;;;;21.08;46.11;101940.78;16110119;19;131072;-40
2023/05/08 16:16:15;;;;;;;5.55;2.97;;;;;;;21.08;46.10;101943.56;16114186;19;132022;-41
2023/05/08 16:21:37;;;;;;;4.95;3.08;;;;;;;21.09;45.98;101938.84;16119497;19;130160;-40
2023/05/08 16:26:59;;;;;;;3.85;2.60;;;;;;;21.06;45.72;101942.94;16117952;19;131840;-40
2023/05/08 16:32:20;;;;;;;4.15;2.70;;;;;;;21.05;45.84;101938.47;16114048;19;129615;-42
2023/05/08 16:37:42;;;;;;;5.15;2.53;;;;;;;21.03;45.80;101926.75;16113632;19;130777;-42
2023/05/08 16:43:04;;;;;;;6.22;2.33;;;;;;;21.02;45.96;101922.28;16118415;19;131320;-40
2023/05/08 16:48:27;;;;;;;2.70;2.10;;;;;;;21.01;45.89;101915.00;16118320;19;134586;-42
2023/05/08 16:53:49;;;;;;;7.15;2.97;;;;;;;21.00;45.95;101916.94;16120094;19;129319;-40
2023/05/08 16:59:11;;;;;;;3.75;2.10;;;;;;;20.98;46.25;101918.25;16114354;19;131264;-44
2023/05/08 17:04:33;;;;;;;3.08;2.15;;;;;;;20.98;45.86;101921.03;16114621;19;130229;-40
2023/05/08 17:09:57;;;;;;;4.43;2.08;;;;;;;20.94;46.26;101908.69;16116318;19;129506;-41
2023/05/08 17:15:19;;;;;;;3.23;1.77;;;;;;;20.99;46.49;101911.59;16108645;19;131679;-42
2023/05/08 17:20:41;;;;;;;2.03;1.38;;;;;;;21.08;46.11;101904.59;16113066;19;130586;-41
2023/05/08 17:26:03;;;;;;;3.92;1.77;;;;;;;21.16;46.00;101907.06;16115367;19;131254;-42
2023/05/08 17:31:26;;;;;;;2.80;1.45;;;;;;;21.21;46.13;101898.81;16108661;19;130290;-40
2023/05/08 17:36:48;;;;;;;2.78;1.38;;;;;;;21.22;45.89;101925.56;16111223;19;130400;-40
2023/05/08 17:42:10;;;;;;;2.78;1.38;;;;;;;21.21;45.69;101921.09;16115632;19;130522;-41
2023/05/08 17:47:32;;;;;;;3.50;1.48;;;;;;;21.21;46.01;101904.38;16110276;19;129799;-41
2023/05/08 17:52:54;;;;;;;4.50;1.70;;;;;;;21.18;46.05;101909.59;16111532;19;129919;-41
2023/05/08 17:58:16;;;;;;;2.45;1.45;;;;;;;21.14;45.79;101906.44;16108463;19;130638;-43
2023/05/08 18:03:38;;;;;;;4.03;1.80;;;;;;;21.12;46.13;101894.69;16109010;19;131123;-45
2023/05/08 18:08:59;;;;;;;3.03;1.42;;;;;;;21.08;45.86;101896.25;16105649;19;132013;-41
2023/05/08 18:14:21;;;;;;;3.85;1.70;;;;;;;21.05;45.95;101882.81;16107821;19;130902;-42
2023/05/08 18:19:46;;;;;;;2.10;1.83;;;;;;;21.01;45.99;101885.25;16104899;19;129176;-41
2023/05/08 18:25:08;;;;;;;3.40;1.67;;;;;;;20.97;45.81;101870.13;16107282;19;130005;-42
2023/05/08 18:30:30;;;;;;;5.28;1.38;;;;;;;20.95;45.88;101882.56;16112035;19;131037;-42
2023/05/08 18:35:52;;;;;;;6.13;1.90;;;;;;;20.94;45.98;101894.78;16108811;19;129773;-42
2023/05/08 18:41:14;;;;;;;22.15;2.53;;;;;;;20.90;46.13;101889.72;16107458;19;131718;-42
2023/05/08 18:46:35;;;;;;;15.50;2.90;;;;;;;20.90;45.96;101873.03;16107337;19;129901;-42
2023/05/08 18:51:58;;;;;;;10.48;2.60;;;;;;;20.92;46.48;101871.94;16112877;19;130876;-42
2023/05/08 18:57:19;;;;;;;12.80;2.50;;;;;;;20.90;46.42;101874.94;16109370;19;129524;-45
2023/05/08 19:02:41;;;;;;;14.45;2.85;;;;;;;20.90;46.30;101886.94;16113427;19;129270;-44
2023/05/08 19:08:03;;;;;;;8.25;2.00;;;;;;;21.01;46.42;101892.75;16113394;19;131251;-44
2023/05/08 19:13:25;;;;;;;24.42;3.00;;;;;;;21.20;46.44;101891.56;16105201;19;130189;-44
2023/05/08 19:18:47;;;;;;;15.15;3.00;;;;;;;21.47;46.20;101890.25;16110874;19;129897;-42
2023/05/08 19:24:09;;;;;;;16.55;2.38;;;;;;;21.68;46.15;101894.38;16118848;19;130187;-41
2023/05/08 19:29:31;;;;;;;15.98;2.20;;;;;;;21.83;45.58;101903.06;16121384;19;129535;-42
2023/05/08 19:34:56;;;;;;;11.27;2.58;;;;;;;21.95;45.62;101913.34;16120088;19;129403;-41
2023/05/08 19:40:18;;;;;;;9.85;1.98;;;;;;;22.00;45.56;101912.59;16123439;19;131049;-41
2023/05/08 19:45:40;;;;;;;11.57;2.17;;;;;;;22.00;45.65;101905.13;16124619;19;130451;-43
2023/05/08 19:51:05;;;;;;;14.60;2.10;;;;;;;21.98;45.55;101918.44;16120995;19;130465;-42
2023/05/08 19:56:28;;;;;;;8.60;2.35;;;;;;;21.92;45.87;101923.03;16117670;19;130566;-41
2023/05/08 20:01:49;;;;;;;25.80;3.17;;;;;;;21.86;45.75;101926.78;16120113;19;130146;-42
2023/05/08 20:07:11;;;;;;;15.13;2.17;;;;;;;21.82;46.01;101922.81;16122414;19;131103;-46
2023/05/08 20:12:33;;;;;;;12.40;2.60;;;;;;;21.78;45.71;101925.25;16122766;19;129766;-43
2023/05/08 20:17:55;;;;;;;14.55;2.25;;;;;;;21.73;45.85;101927.03;16115086;19;131624;-43
2023/05/08 20:23:17;;;;;;;10.40;2.58;;;;;;;21.65;45.94;101920.78;16114774;19;132380;-42
2023/05/08 20:28:39;;;;;;;15.23;2.42;;;;;;;21.59;46.40;101912.53;16116374;19;131038;-43
2023/05/08 20:34:01;;;;;;;14.80;2.25;;;;;;;21.51;46.60;101922.97;16109115;19;133474;-41
2023/05/08 20:39:23;;;;;;;15.73;2.10;;;;;;;21.45;46.45;101929.44;16118180;19;131809;-42
2023/05/08 20:44:44;;;;;;;10.45;2.10;;;;;;;21.42;46.45;101927.13;16140129;19;130279;-42
2023/05/08 20:50:07;;;;;;;11.10;2.03;;;;;;;21.36;46.55;101922.56;16136964;19;131158;-43
2023/05/08 20:55:29;;;;;;;11.63;2.13;;;;;;;21.32;46.59;101924.97;16110438;19;129705;-41
2023/05/08 21:00:50;;;;;;;14.35;2.10;;;;;;;21.28;46.52;101909.84;16113131;19;131109;-42
2023/05/08 21:06:12;;;;;;;12.05;2.47;;;;;;;21.26;46.46;101902.81;16110394;19;130520;-41
2023/05/08 21:11:34;;;;;;;11.30;2.38;;;;;;;21.22;46.32;101905.25;16117125;19;129857;-41
2023/05/08 21:16:56;;;;;;;9.70;1.70;;;;;;;21.19;46.90;101887.06;16108847;19;131416;-42
2023/05/08 21:22:18;;;;;;;10.13;1.65;;;;;;;21.15;46.75;101874.75;16106438;19;129430;-43
2023/05/08 21:27:43;;;;;;;9.55;1.45;;;;;;;21.15;46.62;101866.41;16112581;19;129438;-43
2023/05/08 21:33:05;;;;;;;6.47;1.90;;;;;;;21.12;46.75;101869.66;16109694;19;131825;-39
2023/05/08 21:38:27;;;;;;;10.88;2.20;;;;;;;21.10;46.49;101862.66;16115343;19;130202;-45
2023/05/08 21:43:49;;;;;;;4.50;1.60;;;;;;;21.11;46.96;101859.63;16110905;19;129479;-41
2023/05/08 21:49:11;;;;;;;10.45;1.98;;;;;;;21.13;46.76;101860.22;16111338;19;129815;-42
2023/05/08 21:54:33;;;;;;;9.27;1.45;;;;;;;21.14;46.94;101858.28;16112567;19;130548;-40
2023/05/08 21:59:55;;;;;;;7.60;1.70;;;;;;;21.15;46.51;101844.16;16110637;19;130476;-41
2023/05/08 22:05:17;;;;;;;6.43;1.60;;;;;;;21.15;46.88;101827.44;16106855;19;130454;-46
2023/05/08 22:10:42;;;;;;;7.30;1.77;;;;;;;21.18;46.50;101818.59;16110882;19;130590;-44
2023/05/08 22:16:05;;;;;;;6.87;1.50;;;;;;;21.20;46.16;101816.41;16111739;19;129500;-43
2023/05/08 22:21:28;;;;;;;5.78;1.42;;;;;;;21.19;46.22;101806.38;16110230;19;130718;-42
2023/05/08 22:26:50;;;;;;;5.85;1.40;;;;;;;21.16;46.22;101801.31;16108985;19;129130;-42
2023/05/08 22:32:12;;;;;;;5.70;1.55;;;;;;;21.14;46.70;101797.94;16110180;19;130609;-42
2023/05/08 22:37:35;;;;;;;11.55;1.50;;;;;;;21.10;46.28;101780.00;16109627;19;129524;-44
2023/05/08 22:42:57;;;;;;;4.68;1.40;;;;;;;21.08;46.58;101776.63;16107101;19;129958;-45
2023/05/08 22:48:20;;;;;;;6.88;1.58;;;;;;;21.04;46.49;101773.47;16108072;19;129823;-42
2023/05/08 22:53:42;;;;;;;8.18;1.67;;;;;;;21.02;46.37;101763.69;16118708;19;129744;-44
2023/05/08 22:59:04;;;;;;;5.80;1.30;;;;;;;21.00;46.63;101751.97;16122985;19;129349;-41
2023/05/08 23:04:26;;;;;;;5.18;1.08;;;;;;;20.98;46.86;101759.69;16122954;19;134882;-43
2023/05/08 23:09:48;;;;;;;3.65;1.05;;;;;;;20.95;46.63;101747.13;16125866;19;131720;-42
2023/05/08 23:15:11;;;;;;;1.60;0.85;;;;;;;20.94;46.47;101741.78;16124093;19;129481;-48
2023/05/08 23:20:33;;;;;;;2.65;0.93;;;;;;;20.90;46.98;101736.72;16127011;19;130008;-42
2023/05/08 23:25:59;;;;;;;3.75;1.10;;;;;;;20.89;46.49;101735.03;16121261;19;129805;-48
2023/05/08 23:31:21;;;;;;;5.43;1.23;;;;;;;20.87;46.71;101728.88;16128330;19;130049;-45
2023/05/08 23:36:43;;;;;;;2.08;1.00;;;;;;;20.86;46.57;101727.16;16121587;19;131048;-46
2023/05/08 23:42:06;;;;;;;1.85;0.88;;;;;;;20.85;46.90;101722.69;16122684;19;130045;-43
2023/05/08 23:47:28;;;;;;;1.55;0.88;;;;;;;20.83;46.73;101713.75;16124843;19;129628;-45
2023/05/08 23:52:50;;;;;;;2.40;0.80;;;;;;;20.82;47.11;101717.59;16126599;19;129176;-42
2023/05/08 23:58:11;;;;;;;1.58;0.80;;;;;;;20.80;46.92;101708.66;16122282;19;132087;-44
